createdAt,value
2022-12-12T00:01:46.861Z,35.05
2022-12-12T00:04:13.728Z,19.13
2022-12-12T00:06:40.306Z,36.75
2022-12-12T00:09:06.892Z,31.58
2022-12-12T00:11:33.607Z,30.55
2022-12-12T00:14:00.214Z,25.92
2022-12-12T00:16:26.868Z,37.75
2022-12-12T00:18:53.959Z,25.25
2022-12-12T00:21:24.097Z,30.42
2022-12-12T00:23:51.238Z,21.80
2022-12-12T00:26:24.571Z,30.67
2022-12-12T00:28:52.171Z,33.30
2022-12-12T00:31:19.200Z,28.95
2022-12-12T00:33:48.126Z,34.60
2022-12-12T00:36:19.675Z,32.42
2022-12-12T00:38:46.420Z,27.58
2022-12-12T00:41:13.087Z,26.77
2022-12-12T00:43:39.795Z,30.42
2022-12-12T00:46:06.826Z,34.45
2022-12-12T00:48:33.571Z,32.13
2022-12-12T00:51:09.611Z,32.13
2022-12-12T00:53:38.292Z,31.67
2022-12-12T00:56:05.429Z,35.40
2022-12-12T00:58:32.861Z,34.35
2022-12-12T01:01:06.600Z,29.63
2022-12-12T01:03:34.402Z,26.88
2022-12-12T01:06:00.972Z,36.15
2022-12-12T01:08:28.292Z,36.67
2022-12-12T01:10:55.493Z,29.30
2022-12-12T01:13:22.167Z,33.08
2022-12-12T01:15:49.008Z,31.05
2022-12-12T01:18:16.754Z,27.85
2022-12-12T01:20:43.554Z,32.65
2022-12-12T01:23:11.062Z,28.13
2022-12-12T01:25:37.681Z,19.13
2022-12-12T01:28:05.012Z,30.48
2022-12-12T01:30:32.498Z,29.90
2022-12-12T01:32:59.124Z,32.70
2022-12-12T01:35:26.357Z,28.85
2022-12-12T01:37:54.342Z,26.67
2022-12-12T01:40:24.808Z,28.08
2022-12-12T01:42:52.452Z,30.98
2022-12-12T01:45:56.539Z,28.50
2022-12-12T01:48:29.220Z,36.30
2022-12-12T01:50:59.644Z,30.50
2022-12-12T01:53:29.727Z,35.47
2022-12-12T01:55:57.533Z,33.95
2022-12-12T01:58:25.830Z,26.85
2022-12-12T02:00:52.524Z,28.02
2022-12-12T02:03:19.175Z,35.90
2022-12-12T02:05:55.221Z,29.77
2022-12-12T02:08:23.372Z,30.27
2022-12-12T02:10:50.593Z,30.48
2022-12-12T02:13:21.709Z,28.45
2022-12-12T02:15:54.354Z,30.98
2022-12-12T02:18:28.252Z,31.08
2022-12-12T02:21:18.404Z,29.25
2022-12-12T02:23:53.646Z,31.70
2022-12-12T02:26:49.201Z,37.60
2022-12-12T02:29:38.963Z,29.38
2022-12-12T02:32:10.071Z,33.00
2022-12-12T02:35:00.761Z,29.50
2022-12-12T02:37:43.768Z,27.58
2022-12-12T02:40:30.924Z,30.55
2022-12-12T02:43:13.084Z,29.77
2022-12-12T02:45:51.348Z,25.35
2022-12-12T02:48:28.289Z,26.75
2022-12-12T02:50:59.051Z,32.67
2022-12-12T02:53:25.687Z,29.02
2022-12-12T02:56:07.382Z,26.63
2022-12-12T02:58:37.846Z,27.60
2022-12-12T03:01:13.216Z,27.25
2022-12-12T03:04:37.453Z,28.38
2022-12-12T03:07:44.393Z,29.00
2022-12-12T03:10:29.300Z,27.55
2022-12-12T03:13:08.569Z,28.05
2022-12-12T03:15:44.732Z,23.42
2022-12-12T03:20:59.287Z,30.85
2022-12-12T03:23:32.489Z,30.20
2022-12-12T03:26:27.633Z,35.05
2022-12-12T03:29:17.672Z,32.13
2022-12-12T03:31:53.327Z,30.58
2022-12-12T03:34:26.131Z,23.50
2022-12-12T03:37:08.028Z,26.67
2022-12-12T03:39:42.160Z,24.10
2022-12-12T03:42:15.469Z,29.55
2022-12-12T03:44:57.843Z,26.20
2022-12-12T03:47:35.532Z,25.45
2022-12-12T03:50:16.208Z,30.48
2022-12-12T03:52:50.201Z,31.75
2022-12-12T03:55:19.705Z,30.08
2022-12-12T03:57:54.188Z,33.75
2022-12-12T04:00:20.929Z,28.02
2022-12-12T04:02:56.306Z,27.38
2022-12-12T04:05:40.120Z,27.40
2022-12-12T04:08:15.370Z,31.95
2022-12-12T04:11:10.736Z,30.53
2022-12-12T04:13:55.630Z,30.90
2022-12-12T04:16:29.975Z,29.13
2022-12-12T04:19:01.071Z,23.17
2022-12-12T04:21:59.495Z,30.00
2022-12-12T04:24:35.434Z,30.10
2022-12-12T04:27:08.384Z,23.77
2022-12-12T04:29:46.857Z,22.67
2022-12-12T04:32:16.850Z,26.02
2022-12-12T04:34:50.122Z,25.67
2022-12-12T04:37:22.877Z,25.65
2022-12-12T04:39:52.845Z,26.50
2022-12-12T04:42:23.097Z,28.35
2022-12-12T04:44:54.407Z,24.17
2022-12-12T04:47:22.620Z,25.13
2022-12-12T04:49:51.608Z,25.23
2022-12-12T04:52:21.054Z,26.20
2022-12-12T04:54:50.556Z,29.42
2022-12-12T04:57:25.267Z,29.13
2022-12-12T04:59:52.252Z,32.03
2022-12-12T05:02:30.832Z,24.40
2022-12-12T05:05:02.321Z,23.00
2022-12-12T05:07:41.322Z,29.08
2022-12-12T05:10:14.847Z,27.52
2022-12-12T05:12:50.540Z,28.15
2022-12-12T05:15:19.772Z,28.33
2022-12-12T05:17:49.401Z,35.65
2022-12-12T05:20:16.178Z,25.30
2022-12-12T05:22:42.755Z,26.55
2022-12-12T05:25:10.544Z,29.75
2022-12-12T05:27:37.301Z,32.15
2022-12-12T05:30:04.618Z,35.17
2022-12-12T05:32:31.207Z,30.50
2022-12-12T05:34:57.776Z,30.23
2022-12-12T05:37:24.346Z,25.13
2022-12-12T05:39:50.893Z,31.35
2022-12-12T05:42:17.478Z,26.45
2022-12-12T05:44:44.189Z,23.38
2022-12-12T05:47:10.780Z,28.77
2022-12-12T05:49:37.368Z,26.52
2022-12-12T05:52:04.090Z,25.38
2022-12-12T05:54:30.870Z,26.85
2022-12-12T05:56:57.560Z,20.83
2022-12-12T05:59:24.179Z,24.92
2022-12-12T06:01:50.728Z,23.08
2022-12-12T06:04:17.611Z,20.08
2022-12-12T06:06:44.312Z,25.35
2022-12-12T06:09:10.869Z,26.02
2022-12-12T06:11:37.438Z,27.90
2022-12-12T06:14:04.585Z,24.60
2022-12-12T06:16:31.192Z,24.65
2022-12-12T06:18:57.819Z,25.98
2022-12-12T06:21:24.613Z,21.45
2022-12-12T06:23:51.514Z,24.85
2022-12-12T06:26:18.680Z,21.13
2022-12-12T06:28:45.532Z,28.92
2022-12-12T06:31:12.889Z,18.88
2022-12-12T06:33:40.919Z,26.23
2022-12-12T06:36:09.118Z,25.73
2022-12-12T06:38:36.248Z,24.00
2022-12-12T06:41:14.767Z,24.88
2022-12-12T06:43:42.204Z,21.90
2022-12-12T06:46:14.331Z,21.27
2022-12-12T06:48:40.968Z,21.27
2022-12-12T06:51:09.026Z,21.33
2022-12-12T06:53:36.517Z,25.25
2022-12-12T06:56:21.847Z,24.27
2022-12-12T06:58:48.913Z,22.02
2022-12-12T07:01:19.302Z,26.50
2022-12-12T07:03:46.585Z,20.80
2022-12-12T07:06:13.627Z,21.95
2022-12-12T07:08:40.206Z,22.45
2022-12-12T07:11:19.135Z,25.80
2022-12-12T07:13:45.791Z,18.75
2022-12-12T07:16:12.531Z,26.80
2022-12-12T07:18:39.650Z,22.83
2022-12-12T07:21:07.899Z,24.88
2022-12-12T07:23:34.954Z,25.20
2022-12-12T07:26:11.971Z,21.23
2022-12-12T07:28:38.545Z,27.10
2022-12-12T07:31:09.895Z,25.73
2022-12-12T07:33:43.746Z,26.42
2022-12-12T07:36:12.012Z,22.10
2022-12-12T07:38:38.744Z,23.52
2022-12-12T07:41:08.560Z,24.35
2022-12-12T07:43:41.469Z,22.80
2022-12-12T07:46:14.677Z,18.58
2022-12-12T07:48:41.456Z,21.45
2022-12-12T07:51:08.037Z,19.77
2022-12-12T07:53:34.644Z,26.10
2022-12-12T07:56:05.089Z,27.77
2022-12-12T07:58:31.753Z,23.80
2022-12-12T08:00:58.434Z,22.60
2022-12-12T08:03:25.467Z,24.67
2022-12-12T08:05:52.085Z,23.55
2022-12-12T08:08:18.904Z,19.92
2022-12-12T08:10:45.508Z,23.23
2022-12-12T08:13:12.079Z,22.60
2022-12-12T08:15:38.844Z,22.38
2022-12-12T08:18:05.480Z,21.50
2022-12-12T08:20:32.123Z,19.27
2022-12-12T08:23:00.621Z,21.02
2022-12-12T08:25:27.210Z,18.67
2022-12-12T08:27:53.812Z,19.27
2022-12-12T08:30:20.459Z,17.23
2022-12-12T08:32:47.015Z,22.60
2022-12-12T08:35:14.026Z,18.70
2022-12-12T08:37:40.908Z,17.13
2022-12-12T08:40:08.104Z,18.92
2022-12-12T08:42:34.722Z,18.45
2022-12-12T08:45:01.280Z,17.33
2022-12-12T08:47:27.880Z,19.40
2022-12-12T08:49:54.490Z,18.20
2022-12-12T08:52:21.156Z,21.17
2022-12-12T08:54:47.878Z,19.10
2022-12-12T08:57:14.542Z,19.00
2022-12-12T08:59:41.136Z,19.90
2022-12-12T09:02:12.013Z,18.58
2022-12-12T09:04:38.857Z,15.52
2022-12-12T09:07:08.683Z,18.05
2022-12-12T09:09:35.472Z,19.70
2022-12-12T09:12:02.280Z,16.63
2022-12-12T09:14:28.835Z,17.38
2022-12-12T09:16:55.576Z,18.98
2022-12-12T09:19:22.205Z,19.33
2022-12-12T09:21:48.800Z,20.83
2022-12-12T09:24:15.373Z,17.95
2022-12-12T09:26:42.361Z,18.48
2022-12-12T09:29:10.755Z,18.23
2022-12-12T09:31:37.483Z,20.08
2022-12-12T09:34:04.095Z,19.67
2022-12-12T09:36:30.774Z,21.25
2022-12-12T09:38:57.439Z,21.92
2022-12-12T09:41:30.722Z,17.40
2022-12-12T09:44:08.426Z,17.35
2022-12-12T09:46:37.793Z,20.17
2022-12-12T09:49:25.741Z,21.75
2022-12-12T09:51:53.149Z,21.92
2022-12-12T09:54:22.799Z,27.30
2022-12-12T09:57:08.027Z,19.63
2022-12-12T09:59:56.381Z,20.25
2022-12-12T10:02:51.042Z,16.23
2022-12-12T10:05:32.477Z,20.52
2022-12-12T10:08:13.983Z,19.55
2022-12-12T10:10:44.335Z,19.05
2022-12-12T10:13:17.059Z,20.52
2022-12-12T10:15:51.740Z,22.80
2022-12-12T10:18:30.593Z,21.45
2022-12-12T10:21:01.553Z,19.58
2022-12-12T10:23:40.178Z,20.20
2022-12-12T10:26:24.411Z,17.80
2022-12-12T10:28:59.113Z,20.08
2022-12-12T10:31:25.851Z,21.65
2022-12-12T10:33:55.316Z,23.88
2022-12-12T10:36:48.086Z,20.83
2022-12-12T10:39:25.210Z,18.90
2022-12-12T10:41:51.691Z,23.40
2022-12-12T10:44:22.293Z,21.00
2022-12-12T10:47:00.462Z,16.90
2022-12-12T10:49:27.238Z,20.70
2022-12-12T10:51:55.955Z,18.52
2022-12-12T10:54:26.422Z,20.90
2022-12-12T10:57:24.848Z,20.10
2022-12-12T10:59:54.678Z,17.45
2022-12-12T11:02:29.114Z,18.80
2022-12-12T11:05:06.586Z,18.10
2022-12-12T11:07:39.454Z,16.08
2022-12-12T11:10:35.198Z,18.15
2022-12-12T11:13:22.005Z,16.63
2022-12-12T11:16:13.124Z,17.58
2022-12-12T11:18:41.490Z,23.42
2022-12-12T11:21:11.679Z,16.58
2022-12-12T11:23:41.684Z,15.35
2022-12-12T11:26:14.135Z,13.93
2022-12-12T11:28:42.226Z,17.63
2022-12-12T11:31:14.353Z,18.52
2022-12-12T11:33:48.420Z,16.40
2022-12-12T11:36:23.308Z,14.20
2022-12-12T11:38:54.348Z,15.82
2022-12-12T11:41:21.023Z,15.27
2022-12-12T11:43:47.553Z,15.75
2022-12-12T11:46:14.121Z,16.35
2022-12-12T11:48:46.791Z,16.92
2022-12-12T11:51:29.967Z,13.88
2022-12-12T11:53:56.850Z,17.75
2022-12-12T11:56:37.906Z,13.15
2022-12-12T11:59:39.623Z,14.55
2022-12-12T12:02:41.371Z,15.30
2022-12-12T12:05:17.082Z,15.00
2022-12-12T12:07:52.698Z,15.40
2022-12-12T12:10:47.745Z,19.33
2022-12-12T12:13:51.913Z,17.98
2022-12-12T12:16:36.174Z,15.93
2022-12-12T12:19:29.813Z,16.42
2022-12-12T12:22:03.900Z,17.92
2022-12-12T12:25:06.435Z,19.17
2022-12-12T12:27:50.833Z,19.00
2022-12-12T12:30:24.175Z,21.92
2022-12-12T12:33:09.130Z,14.30
2022-12-12T12:35:54.380Z,17.55
2022-12-12T12:38:37.331Z,11.80
2022-12-12T12:41:14.958Z,13.70
2022-12-12T12:43:53.923Z,13.40
2022-12-12T12:46:35.031Z,10.93
2022-12-12T12:49:15.604Z,9.18
2022-12-12T12:51:55.939Z,10.57
2022-12-12T12:54:26.076Z,10.73
2022-12-12T12:57:08.008Z,12.43
2022-12-12T12:59:38.787Z,10.32
2022-12-12T13:02:26.721Z,9.70
2022-12-12T13:05:14.980Z,14.23
2022-12-12T13:08:16.011Z,10.15
2022-12-12T13:10:47.713Z,11.07
2022-12-12T13:13:43.253Z,8.35
2022-12-12T13:16:15.866Z,11.82
2022-12-12T13:18:46.115Z,12.18
2022-12-12T13:21:39.269Z,10.15
2022-12-12T13:24:29.511Z,9.23
2022-12-12T13:27:31.824Z,11.30
2022-12-12T13:30:23.099Z,13.75
2022-12-12T13:33:14.224Z,9.00
2022-12-12T13:35:46.166Z,8.25
2022-12-12T13:38:33.490Z,10.63
2022-12-12T13:41:02.809Z,11.13
2022-12-12T13:43:38.593Z,9.65
2022-12-12T13:46:23.578Z,10.80
2022-12-12T13:49:27.459Z,9.52
2022-12-12T13:52:24.050Z,9.65
2022-12-12T13:54:54.631Z,9.20
2022-12-12T13:57:24.510Z,8.88
2022-12-12T14:00:19.369Z,10.02
2022-12-12T14:02:59.511Z,9.13
2022-12-12T14:05:41.380Z,10.70
2022-12-12T14:08:11.073Z,11.02
2022-12-12T14:10:54.193Z,9.45
2022-12-12T14:13:26.927Z,8.82
2022-12-12T14:16:07.938Z,11.20
2022-12-12T14:18:59.627Z,8.43
2022-12-12T14:21:43.516Z,9.32
2022-12-12T14:24:36.186Z,10.23
2022-12-12T14:27:07.501Z,8.38
2022-12-12T14:29:42.082Z,11.02
2022-12-12T14:32:11.648Z,12.07
2022-12-12T14:35:16.006Z,10.90
2022-12-12T14:38:04.475Z,10.25
2022-12-12T14:40:39.351Z,9.98
2022-12-12T14:43:25.616Z,8.52
2022-12-12T14:45:57.994Z,10.27
2022-12-12T14:48:32.521Z,8.63
2022-12-12T14:51:28.962Z,7.80
2022-12-12T14:56:31.217Z,11.15
2022-12-12T14:59:13.326Z,8.90
2022-12-12T15:01:46.186Z,10.25
2022-12-12T15:04:21.372Z,8.73
2022-12-12T15:07:13.472Z,9.00
2022-12-12T15:09:40.549Z,10.27
2022-12-12T15:12:10.266Z,10.82
2022-12-12T15:14:57.559Z,10.45
2022-12-12T15:17:44.038Z,12.10
2022-12-12T15:20:21.696Z,10.05
2022-12-12T15:23:05.493Z,10.70
2022-12-12T15:25:36.039Z,12.48
2022-12-12T15:28:03.183Z,13.25
2022-12-12T15:30:42.718Z,11.00
2022-12-12T15:33:21.507Z,14.10
2022-12-12T15:35:50.522Z,9.27
2022-12-12T15:38:17.085Z,11.85
2022-12-12T15:40:47.569Z,10.80
2022-12-12T15:43:17.409Z,11.13
2022-12-12T15:45:52.030Z,10.40
2022-12-12T15:48:19.728Z,11.95
2022-12-12T15:50:46.248Z,11.20
2022-12-12T15:53:16.463Z,9.50
2022-12-12T15:56:13.811Z,10.77
2022-12-12T15:58:46.778Z,10.13
2022-12-12T16:01:20.269Z,10.52
2022-12-12T16:03:55.636Z,9.25
2022-12-12T16:06:26.786Z,11.13
2022-12-12T16:09:01.004Z,7.70
2022-12-12T16:11:41.672Z,8.60
2022-12-12T16:14:37.099Z,7.95
2022-12-12T16:17:25.822Z,8.60
2022-12-12T16:20:03.205Z,8.93
2022-12-12T16:22:39.875Z,9.82
2022-12-12T16:25:10.992Z,14.15
2022-12-12T16:27:37.683Z,10.15
2022-12-12T16:30:05.443Z,8.73
2022-12-12T16:32:32.040Z,11.48
2022-12-12T16:34:58.622Z,8.00
2022-12-12T16:37:25.208Z,12.25
2022-12-12T16:39:51.832Z,10.35
2022-12-12T16:42:20.828Z,9.77
2022-12-12T16:44:47.665Z,10.07
2022-12-12T16:47:20.801Z,8.82
2022-12-12T16:49:47.710Z,9.45
2022-12-12T16:52:16.088Z,8.23
2022-12-12T16:54:46.896Z,8.80
2022-12-12T16:57:17.889Z,9.02
2022-12-12T16:59:44.539Z,7.30
2022-12-12T17:02:23.303Z,9.88
2022-12-12T17:04:50.726Z,10.00
2022-12-12T17:07:17.439Z,9.20
2022-12-12T17:09:44.246Z,10.25
2022-12-12T17:12:13.068Z,9.02
2022-12-12T17:14:39.907Z,8.40
2022-12-12T17:17:06.779Z,9.13
2022-12-12T17:19:33.427Z,9.88
2022-12-12T17:22:00.700Z,8.88
2022-12-12T17:24:27.859Z,8.48
2022-12-12T17:26:54.544Z,8.20
2022-12-12T17:29:21.461Z,8.98
2022-12-12T17:31:48.197Z,8.45
2022-12-12T17:34:14.789Z,8.60
2022-12-12T17:36:41.393Z,9.20
2022-12-12T17:39:08.025Z,8.05
2022-12-12T17:41:34.596Z,8.82
2022-12-12T17:44:01.297Z,10.73
2022-12-12T17:46:30.034Z,8.85
2022-12-12T17:48:58.432Z,9.30
2022-12-12T17:51:25.879Z,9.32
2022-12-12T17:53:52.908Z,7.95
2022-12-12T17:56:22.735Z,9.93
2022-12-12T17:58:49.848Z,8.75
2022-12-12T18:01:18.256Z,10.20
2022-12-12T18:03:45.730Z,9.35
2022-12-12T18:06:13.828Z,9.73
2022-12-12T18:08:41.345Z,10.50
2022-12-12T18:11:18.535Z,9.55
2022-12-12T18:13:45.828Z,9.73
2022-12-12T18:16:13.224Z,10.48
2022-12-12T18:18:40.773Z,11.90
2022-12-12T18:21:12.928Z,10.38
2022-12-12T18:23:43.005Z,8.95
2022-12-12T18:26:18.570Z,10.82
2022-12-12T18:29:00.642Z,8.85
2022-12-12T18:31:28.342Z,10.85
2022-12-12T18:33:55.246Z,9.35
2022-12-12T18:36:25.256Z,11.52
2022-12-12T18:38:53.527Z,9.65
2022-12-12T18:41:20.167Z,9.43
2022-12-12T18:43:46.838Z,12.35
2022-12-12T18:46:16.990Z,9.45
2022-12-12T18:48:45.398Z,7.82
2022-12-12T18:51:18.898Z,10.38
2022-12-12T18:53:46.771Z,8.43
2022-12-12T18:56:23.995Z,11.07
2022-12-12T18:58:53.162Z,10.98
2022-12-12T19:01:25.881Z,10.38
2022-12-12T19:03:54.098Z,9.43
2022-12-12T19:06:24.802Z,10.15
2022-12-12T19:08:51.983Z,10.23
2022-12-12T19:11:19.921Z,9.90
2022-12-12T19:13:47.337Z,10.82
2022-12-12T19:16:17.001Z,6.82
2022-12-12T19:18:44.197Z,11.30
2022-12-12T19:21:17.247Z,9.27
2022-12-12T19:23:47.705Z,8.93
2022-12-12T19:26:27.140Z,11.95
2022-12-12T19:28:59.382Z,10.35
2022-12-12T19:31:26.341Z,13.55
2022-12-12T19:33:54.208Z,10.82
2022-12-12T19:36:24.610Z,10.65
2022-12-12T19:38:52.254Z,11.43
2022-12-12T19:41:21.930Z,11.15
2022-12-12T19:43:50.263Z,12.02
2022-12-12T19:46:20.122Z,11.77
2022-12-12T19:48:47.940Z,11.15
2022-12-12T19:51:17.451Z,18.00
2022-12-12T19:53:46.659Z,15.30
2022-12-12T19:56:23.652Z,13.00
2022-12-12T19:58:50.576Z,15.35
2022-12-12T20:01:19.911Z,11.23
2022-12-12T20:03:51.193Z,11.45
2022-12-12T20:06:18.836Z,12.68
2022-12-12T20:08:46.155Z,11.68
2022-12-12T20:11:15.418Z,13.93
2022-12-12T20:13:43.181Z,8.27
2022-12-12T20:16:13.003Z,14.07
2022-12-12T20:18:41.624Z,14.80
2022-12-12T20:21:20.464Z,17.30
2022-12-12T20:23:57.433Z,12.05
2022-12-12T20:26:26.568Z,14.25
2022-12-12T20:28:55.058Z,14.75
2022-12-12T20:31:25.295Z,15.68
2022-12-12T20:33:54.958Z,15.75
2022-12-12T20:36:24.526Z,15.32
2022-12-12T20:38:52.155Z,17.45
2022-12-12T20:41:24.468Z,15.23
2022-12-12T20:43:54.443Z,12.98
2022-12-12T20:46:32.909Z,12.52
2022-12-12T20:49:01.975Z,10.98
2022-12-12T20:51:54.775Z,15.88
2022-12-12T20:54:19.977Z,14.15
2022-12-12T20:56:46.815Z,11.20
2022-12-12T20:59:14.705Z,10.80
2022-12-12T21:01:41.668Z,15.00
2022-12-12T21:04:09.619Z,15.85
2022-12-12T21:06:41.110Z,12.10
2022-12-12T21:09:10.610Z,16.75
2022-12-12T21:11:38.625Z,15.50
2022-12-12T21:14:06.717Z,11.98
2022-12-12T21:16:37.084Z,13.23
2022-12-12T21:19:09.908Z,16.88
2022-12-12T21:21:37.955Z,13.75
2022-12-12T21:24:05.213Z,13.70
2022-12-12T21:26:32.981Z,13.63
2022-12-12T21:29:01.893Z,14.60
2022-12-12T21:31:35.985Z,13.75
2022-12-12T21:34:03.436Z,13.27
2022-12-12T21:36:31.520Z,12.13
2022-12-12T21:38:59.965Z,11.82
2022-12-12T21:41:27.180Z,12.88
2022-12-12T21:43:55.739Z,13.80
2022-12-12T21:46:25.478Z,12.85
2022-12-12T21:49:11.581Z,12.65
2022-12-12T21:51:41.886Z,12.75
2022-12-12T21:54:10.470Z,12.32
2022-12-12T21:56:37.483Z,15.25
2022-12-12T21:59:04.050Z,14.32
2022-12-12T22:01:32.455Z,15.25
2022-12-12T22:04:00.392Z,14.68
2022-12-12T22:06:32.526Z,14.90
2022-12-12T22:09:01.244Z,13.98
2022-12-12T22:11:40.037Z,13.77
2022-12-12T22:14:13.644Z,14.15
2022-12-12T22:16:40.276Z,11.32
2022-12-12T22:19:11.066Z,14.93
2022-12-12T22:21:37.706Z,17.38
2022-12-12T22:24:04.785Z,13.95
2022-12-12T22:26:41.194Z,13.98
2022-12-12T22:29:11.713Z,14.57
2022-12-12T22:31:39.787Z,18.10
2022-12-12T22:34:12.722Z,14.70
2022-12-12T22:36:40.322Z,13.07
2022-12-12T22:39:08.799Z,14.65
2022-12-12T22:41:35.382Z,12.48
2022-12-12T22:44:04.025Z,13.90
2022-12-12T22:46:30.845Z,13.48
2022-12-12T22:49:00.322Z,14.23
2022-12-12T22:51:29.829Z,17.35
2022-12-12T22:53:58.370Z,11.23
2022-12-12T22:56:25.544Z,13.02
2022-12-12T22:58:52.187Z,12.23
2022-12-12T23:01:20.787Z,12.23
2022-12-12T23:03:48.153Z,12.40
2022-12-12T23:06:19.276Z,12.82
2022-12-12T23:08:51.743Z,11.30
2022-12-12T23:11:20.274Z,12.82
2022-12-12T23:13:47.251Z,14.52
2022-12-12T23:16:19.556Z,12.80
2022-12-12T23:18:48.103Z,12.35
2022-12-12T23:21:17.702Z,14.57
2022-12-12T23:23:45.811Z,16.02
2022-12-12T23:26:15.270Z,15.07
2022-12-12T23:28:43.104Z,15.45
2022-12-12T23:31:12.221Z,13.50
2022-12-12T23:33:39.338Z,12.75
2022-12-12T23:36:11.079Z,13.48
2022-12-12T23:38:38.228Z,8.15
2022-12-12T23:41:06.893Z,14.25
2022-12-12T23:43:34.166Z,12.95
2022-12-12T23:46:03.260Z,12.25
2022-12-12T23:48:30.985Z,14.20
2022-12-12T23:50:58.351Z,17.40
2022-12-12T23:53:26.450Z,12.02
2022-12-12T23:55:53.627Z,13.32
2022-12-12T23:58:20.174Z,12.63
